createdAt,value
2018-11-02T00:00:58.101Z,10.70
2018-11-02T00:03:26.629Z,10.80
2018-11-02T00:05:55.269Z,10.70
2018-11-02T00:08:23.788Z,10.70
2018-11-02T00:10:52.351Z,10.70
2018-11-02T00:13:20.856Z,10.80
2018-11-02T00:15:49.347Z,10.70
2018-11-02T00:18:18.401Z,10.70
2018-11-02T00:20:46.938Z,10.70
2018-11-02T00:23:15.480Z,10.70
2018-11-02T00:25:44.062Z,10.70
2018-11-02T00:28:12.561Z,10.70
2018-11-02T00:30:41.059Z,10.70
2018-11-02T00:33:09.581Z,10.60
2018-11-02T00:35:39.803Z,10.60
2018-11-02T00:38:08.300Z,10.60
2018-11-02T00:40:36.816Z,10.60
2018-11-02T00:43:06.225Z,10.60
2018-11-02T00:45:34.801Z,10.60
2018-11-02T00:48:03.311Z,10.60
2018-11-02T00:50:31.844Z,10.60
2018-11-02T00:53:00.369Z,10.60
2018-11-02T00:55:28.979Z,10.60
2018-11-02T00:57:57.510Z,10.60
2018-11-02T01:00:26.114Z,10.60
2018-11-02T01:02:54.605Z,10.60
2018-11-02T01:05:23.108Z,10.60
2018-11-02T01:07:51.697Z,10.60
2018-11-02T01:10:20.219Z,10.70
2018-11-02T01:12:48.711Z,10.70
2018-11-02T01:15:17.218Z,10.70
2018-11-02T01:17:45.708Z,10.70
2018-11-02T01:20:14.263Z,10.70
2018-11-02T01:22:42.801Z,10.70
2018-11-02T01:25:11.312Z,10.80
2018-11-02T01:27:39.847Z,10.80
2018-11-02T01:30:08.386Z,10.80
2018-11-02T01:32:36.981Z,10.80
2018-11-02T01:35:06.595Z,10.90
2018-11-02T01:37:35.158Z,10.90
2018-11-02T01:40:03.782Z,10.80
2018-11-02T01:42:32.300Z,10.80
2018-11-02T01:45:01.025Z,10.80
2018-11-02T01:47:29.540Z,10.80
2018-11-02T01:49:58.097Z,10.90
2018-11-02T01:52:26.605Z,10.80
2018-11-02T01:54:55.099Z,10.90
2018-11-02T01:57:23.587Z,10.90
2018-11-02T01:59:52.098Z,10.90
2018-11-02T02:02:20.598Z,11.00
2018-11-02T02:04:49.491Z,11.00
2018-11-02T02:07:18.071Z,11.10
2018-11-02T02:09:46.576Z,11.10
2018-11-02T02:12:15.109Z,11.10
2018-11-02T02:14:43.653Z,11.10
2018-11-02T02:17:12.137Z,11.10
2018-11-02T02:19:40.855Z,11.00
2018-11-02T02:22:09.395Z,11.20
2018-11-02T02:24:37.915Z,11.20
2018-11-02T02:27:07.446Z,11.10
2018-11-02T02:29:36.241Z,11.00
2018-11-02T02:32:04.832Z,10.90
2018-11-02T02:34:33.326Z,11.10
2018-11-02T02:37:01.886Z,11.00
2018-11-02T02:39:30.365Z,10.90
2018-11-02T02:41:58.864Z,10.90
2018-11-02T02:44:27.312Z,11.00
2018-11-02T02:46:55.804Z,11.00
2018-11-02T02:49:25.512Z,11.20
2018-11-02T02:51:53.994Z,11.10
2018-11-02T02:54:22.466Z,11.00
2018-11-02T02:56:50.951Z,10.80
2018-11-02T02:59:19.478Z,10.70
2018-11-02T03:01:47.924Z,10.70
2018-11-02T03:04:16.508Z,10.80
2018-11-02T03:06:45.001Z,10.80
2018-11-02T03:09:13.884Z,10.90
2018-11-02T03:11:42.314Z,10.90
2018-11-02T03:14:11.039Z,10.70
2018-11-02T03:16:39.567Z,10.60
2018-11-02T03:19:08.058Z,10.40
2018-11-02T03:21:37.203Z,10.50
2018-11-02T03:24:06.115Z,10.40
2018-11-02T03:26:34.601Z,10.30
2018-11-02T03:29:03.073Z,10.30
2018-11-02T03:31:31.557Z,10.30
2018-11-02T03:34:00.150Z,10.30
2018-11-02T03:36:28.700Z,10.30
2018-11-02T03:38:57.364Z,10.40
2018-11-02T03:41:25.873Z,10.30
2018-11-02T03:43:55.176Z,10.40
2018-11-02T03:46:23.724Z,10.50
2018-11-02T03:48:52.180Z,10.40
2018-11-02T03:51:20.731Z,10.30
2018-11-02T03:53:49.216Z,10.20
2018-11-02T03:56:17.858Z,10.20
2018-11-02T03:58:46.348Z,10.00
2018-11-02T04:01:14.939Z,9.90
2018-11-02T04:03:44.041Z,9.80
2018-11-02T04:06:12.559Z,9.80
2018-11-02T04:08:41.106Z,9.90
2018-11-02T04:11:09.623Z,9.90
2018-11-02T04:13:38.127Z,9.90
2018-11-02T04:16:06.660Z,9.90
2018-11-02T04:18:35.198Z,9.80
2018-11-02T04:21:03.713Z,9.90
2018-11-02T04:23:32.203Z,9.90
2018-11-02T04:26:00.755Z,9.90
2018-11-02T04:28:29.265Z,10.10
2018-11-02T04:30:58.812Z,10.10
2018-11-02T04:33:27.834Z,9.90
2018-11-02T04:35:56.352Z,10.00
2018-11-02T04:38:24.862Z,10.20
2018-11-02T04:40:53.406Z,10.20
2018-11-02T04:43:21.909Z,10.10
2018-11-02T04:45:50.442Z,10.10
2018-11-02T04:48:18.983Z,10.10
2018-11-02T04:50:47.519Z,10.00
2018-11-02T04:53:16.066Z,10.10
2018-11-02T04:55:44.526Z,10.00
2018-11-02T04:58:13.081Z,10.10
2018-11-02T05:00:41.601Z,10.00
2018-11-02T05:03:10.126Z,9.90
2018-11-02T05:05:38.579Z,10.00
2018-11-02T05:08:07.103Z,9.90
2018-11-02T05:10:35.598Z,9.80
2018-11-02T05:13:04.791Z,9.80
2018-11-02T05:15:33.293Z,9.80
2018-11-02T05:18:01.748Z,9.70
2018-11-02T05:20:30.283Z,9.60
2018-11-02T05:22:58.800Z,9.60
2018-11-02T05:25:27.269Z,9.60
2018-11-02T05:27:56.374Z,9.50
2018-11-02T05:30:24.861Z,9.50
2018-11-02T05:32:53.381Z,9.50
2018-11-02T05:35:21.984Z,9.50
2018-11-02T05:37:50.471Z,9.40
2018-11-02T05:40:18.927Z,9.50
2018-11-02T05:42:47.407Z,9.50
2018-11-02T05:45:16.707Z,9.40
2018-11-02T05:47:46.027Z,9.50
2018-11-02T05:50:14.519Z,9.60
2018-11-02T05:52:43.062Z,9.50
2018-11-02T05:55:11.599Z,9.40
2018-11-02T05:57:40.101Z,9.50
2018-11-02T06:00:09.072Z,9.40
2018-11-02T06:02:37.577Z,9.30
2018-11-02T06:05:11.515Z,9.20
2018-11-02T06:07:40.076Z,9.20
2018-11-02T06:10:08.912Z,9.20
2018-11-02T06:12:38.010Z,9.20
2018-11-02T06:15:07.157Z,9.10
2018-11-02T06:17:35.679Z,9.20
2018-11-02T06:20:04.977Z,9.10
2018-11-02T06:22:33.474Z,9.10
2018-11-02T06:25:01.953Z,9.20
2018-11-02T06:27:30.433Z,9.20
2018-11-02T06:29:58.896Z,9.30
2018-11-02T06:32:27.484Z,9.60
2018-11-02T06:34:56.014Z,9.60
2018-11-02T06:37:24.527Z,9.50
2018-11-02T06:39:53.131Z,9.60
2018-11-02T06:42:21.686Z,9.60
2018-11-02T06:44:50.278Z,9.60
2018-11-02T06:47:18.843Z,9.60
2018-11-02T06:49:47.344Z,9.40
2018-11-02T06:52:15.923Z,9.60
2018-11-02T06:54:44.844Z,9.80
2018-11-02T06:57:13.365Z,9.80
2018-11-02T06:59:42.055Z,9.50
2018-11-02T07:02:10.471Z,9.40
2018-11-02T07:04:38.982Z,9.40
2018-11-02T07:07:07.677Z,9.60
2018-11-02T07:09:36.128Z,9.70
2018-11-02T07:12:05.045Z,9.50
2018-11-02T07:14:33.578Z,9.60
2018-11-02T07:17:02.123Z,9.20
2018-11-02T07:19:31.037Z,9.20
2018-11-02T07:21:59.656Z,9.40
2018-11-02T07:24:28.233Z,9.50
2018-11-02T07:26:56.812Z,9.50
2018-11-02T07:29:26.056Z,9.50
2018-11-02T07:31:54.609Z,9.50
2018-11-02T07:34:23.272Z,9.70
2018-11-02T07:36:51.897Z,9.70
2018-11-02T07:39:29.381Z,9.90
2018-11-02T07:41:58.008Z,10.40
2018-11-02T07:44:26.550Z,10.10
2018-11-02T07:46:55.240Z,9.90
2018-11-02T07:49:24.005Z,10.00
2018-11-02T07:51:52.526Z,10.00
2018-11-02T07:54:21.212Z,9.90
2018-11-02T07:56:49.848Z,9.90
2018-11-02T07:59:18.686Z,9.90
2018-11-02T08:01:48.109Z,9.90
2018-11-02T08:04:17.505Z,9.80
2018-11-02T08:06:46.865Z,9.70
2018-11-02T08:09:15.854Z,9.80
2018-11-02T08:11:45.458Z,9.80
2018-11-02T08:14:14.044Z,9.90
2018-11-02T08:16:42.649Z,9.70
2018-11-02T08:19:11.274Z,9.70
2018-11-02T08:21:39.925Z,9.60
2018-11-02T08:24:08.485Z,9.70
2018-11-02T08:26:37.101Z,9.60
2018-11-02T08:29:05.943Z,9.60
2018-11-02T08:31:34.574Z,9.40
2018-11-02T08:34:03.172Z,9.60
2018-11-02T08:36:32.488Z,9.50
2018-11-02T08:39:01.620Z,9.80
2018-11-02T08:41:30.160Z,10.20
2018-11-02T08:43:58.764Z,10.50
2018-11-02T08:46:27.385Z,10.80
2018-11-02T08:48:55.977Z,10.80
2018-11-02T08:51:24.606Z,11.20
2018-11-02T08:53:53.285Z,11.50
2018-11-02T08:56:21.825Z,11.60
2018-11-02T08:58:50.618Z,11.90
2018-11-02T09:01:19.188Z,12.10
2018-11-02T09:03:47.769Z,12.10
2018-11-02T09:06:16.331Z,12.40
2018-11-02T09:08:45.001Z,12.10
2018-11-02T09:11:13.529Z,13.10
2018-11-02T09:13:42.126Z,13.00
2018-11-02T09:16:10.669Z,13.00
2018-11-02T09:18:39.279Z,13.00
2018-11-02T09:21:07.781Z,13.30
2018-11-02T09:23:36.353Z,14.00
2018-11-02T09:26:05.446Z,13.80
2018-11-02T09:28:33.998Z,13.70
2018-11-02T09:31:02.465Z,13.70
2018-11-02T09:33:30.983Z,13.40
2018-11-02T09:35:59.466Z,13.10
2018-11-02T09:38:27.995Z,13.70
2018-11-02T09:40:56.464Z,12.90
2018-11-02T09:43:25.000Z,13.00
2018-11-02T09:45:53.570Z,13.30
2018-11-02T09:48:22.045Z,13.00
2018-11-02T09:50:50.512Z,13.40
2018-11-02T09:53:19.013Z,13.40
2018-11-02T09:55:47.581Z,13.30
2018-11-02T09:58:17.296Z,13.10
2018-11-02T10:00:45.846Z,13.20
2018-11-02T10:03:14.422Z,13.40
2018-11-02T10:05:42.936Z,13.70
2018-11-02T10:08:11.517Z,13.50
2018-11-02T10:10:40.042Z,14.10
2018-11-02T10:13:08.559Z,13.60
2018-11-02T10:15:37.113Z,13.10
2018-11-02T10:18:05.777Z,13.10
2018-11-02T10:20:34.417Z,13.20
2018-11-02T10:23:03.063Z,13.40
2018-11-02T10:25:31.585Z,13.00
2018-11-02T10:28:00.248Z,13.30
2018-11-02T10:30:28.764Z,13.50
2018-11-02T10:32:58.030Z,13.40
2018-11-02T10:35:26.701Z,13.50
2018-11-02T10:37:56.979Z,13.00
2018-11-02T10:40:25.573Z,13.30
2018-11-02T10:42:56.083Z,13.50
2018-11-02T10:45:28.568Z,13.50
2018-11-02T10:47:58.006Z,13.10
2018-11-02T10:50:26.537Z,13.00
2018-11-02T10:52:55.088Z,13.20
2018-11-02T10:55:23.574Z,13.30
2018-11-02T10:57:52.090Z,13.40
2018-11-02T11:00:25.888Z,13.80
2018-11-02T11:02:57.193Z,13.80
2018-11-02T11:05:25.809Z,14.00
2018-11-02T11:07:54.307Z,13.70
2018-11-02T11:10:23.075Z,14.10
2018-11-02T11:12:51.680Z,14.30
2018-11-02T11:15:20.998Z,13.20
2018-11-02T11:17:50.250Z,13.10
2018-11-02T11:20:18.818Z,13.40
2018-11-02T11:22:47.465Z,13.50
2018-11-02T11:25:16.505Z,13.80
2018-11-02T11:27:45.108Z,13.90
2018-11-02T11:30:19.746Z,13.30
2018-11-02T11:32:49.387Z,12.50
2018-11-02T11:35:18.718Z,12.50
2018-11-02T11:37:47.372Z,12.50
2018-11-02T11:40:17.209Z,12.50
2018-11-02T11:42:45.694Z,12.90
2018-11-02T11:45:16.052Z,13.60
2018-11-02T11:47:44.829Z,13.80
2018-11-02T11:50:19.431Z,14.10
2018-11-02T11:52:49.774Z,14.10
2018-11-02T11:55:19.233Z,14.00
2018-11-02T11:57:47.937Z,13.80
2018-11-02T12:00:18.697Z,14.40
2018-11-02T12:02:48.530Z,14.60
2018-11-02T12:05:18.498Z,14.50
2018-11-02T12:07:47.238Z,14.40
2018-11-02T12:10:21.399Z,14.40
2018-11-02T12:12:49.956Z,14.50
2018-11-02T12:15:21.865Z,14.30
2018-11-02T12:17:51.722Z,14.60
2018-11-02T12:20:23.880Z,14.90
2018-11-02T12:22:53.906Z,15.40
2018-11-02T12:25:22.665Z,15.90
2018-11-02T12:27:51.333Z,16.10
2018-11-02T12:30:20.239Z,16.30
2018-11-02T12:32:48.846Z,16.50
2018-11-02T12:35:18.370Z,16.40
2018-11-02T12:37:47.083Z,16.00
2018-11-02T12:40:16.906Z,16.40
2018-11-02T12:42:46.579Z,16.70
2018-11-02T12:45:16.288Z,16.50
2018-11-02T12:47:45.324Z,17.20
2018-11-02T12:50:16.675Z,16.60
2018-11-02T12:52:46.070Z,16.90
2018-11-02T12:55:16.236Z,16.60
2018-11-02T12:57:44.952Z,16.10
2018-11-02T13:00:15.829Z,15.90
2018-11-02T13:02:45.250Z,15.80
2018-11-02T13:05:13.781Z,16.10
2018-11-02T13:07:42.308Z,16.20
2018-11-02T13:10:13.107Z,16.10
2018-11-02T13:12:43.469Z,16.30
2018-11-02T13:15:13.579Z,15.70
2018-11-02T13:17:42.943Z,16.10
2018-11-02T13:20:12.037Z,16.50
2018-11-02T13:22:41.281Z,16.20
2018-11-02T13:25:12.079Z,15.70
2018-11-02T13:27:40.904Z,15.10
2018-11-02T13:30:10.146Z,15.30
2018-11-02T13:32:38.924Z,15.40
2018-11-02T13:35:09.688Z,15.40
2018-11-02T13:37:38.201Z,15.60
2018-11-02T13:40:08.251Z,15.80
2018-11-02T13:42:37.060Z,15.80
2018-11-02T13:45:06.282Z,15.50
2018-11-02T13:47:34.764Z,14.50
2018-11-02T13:50:03.374Z,14.60
2018-11-02T13:52:31.902Z,14.40
2018-11-02T13:55:00.465Z,14.40
2018-11-02T13:57:28.985Z,14.60
2018-11-02T13:59:57.601Z,14.80
2018-11-02T14:02:26.100Z,14.90
2018-11-02T14:04:54.628Z,14.80
2018-11-02T14:07:23.168Z,14.50
2018-11-02T14:09:51.650Z,14.40
2018-11-02T14:12:20.102Z,13.80
2018-11-02T14:14:48.699Z,13.50
2018-11-02T14:17:17.169Z,13.40
2018-11-02T14:19:45.753Z,13.30
2018-11-02T14:22:14.413Z,13.30
2018-11-02T14:24:43.015Z,13.40
2018-11-02T14:27:12.265Z,13.60
2018-11-02T14:29:40.833Z,13.80
2018-11-02T14:32:10.172Z,13.50
2018-11-02T14:34:38.729Z,13.10
2018-11-02T14:37:07.332Z,13.10
2018-11-02T14:39:35.827Z,13.50
2018-11-02T14:42:04.415Z,13.10
2018-11-02T14:44:32.969Z,13.30
2018-11-02T14:47:01.571Z,13.00
2018-11-02T14:49:30.097Z,13.10
2018-11-02T14:51:58.579Z,13.40
2018-11-02T14:54:27.084Z,13.30
2018-11-02T14:56:55.628Z,13.10
2018-11-02T14:59:24.141Z,13.00
2018-11-02T15:01:52.649Z,12.90
2018-11-02T15:04:21.136Z,12.60
2018-11-02T15:06:49.646Z,12.30
2018-11-02T15:09:18.154Z,12.30
2018-11-02T15:11:46.720Z,12.30
2018-11-02T15:14:15.315Z,12.10
2018-11-02T15:16:43.837Z,12.40
2018-11-02T15:19:12.325Z,12.40
2018-11-02T15:21:40.852Z,12.20
2018-11-02T15:24:09.362Z,12.00
2018-11-02T15:26:37.999Z,12.00
2018-11-02T15:29:06.486Z,11.80
2018-11-02T15:31:34.970Z,11.80
2018-11-02T15:34:03.492Z,11.80
2018-11-02T15:36:33.300Z,12.00
2018-11-02T15:39:01.757Z,11.70
2018-11-02T15:41:30.257Z,11.70
2018-11-02T15:43:58.737Z,11.80
2018-11-02T15:46:27.340Z,11.80
2018-11-02T15:48:57.017Z,11.80
2018-11-02T15:51:26.052Z,11.80
2018-11-02T15:53:54.552Z,11.80
2018-11-02T15:56:23.026Z,11.70
2018-11-02T15:58:52.358Z,11.50
2018-11-02T16:01:21.658Z,11.50
2018-11-02T16:03:50.163Z,11.40
2018-11-02T16:06:18.645Z,11.30
2018-11-02T16:08:47.146Z,11.20
2018-11-02T16:11:15.657Z,11.20
2018-11-02T16:13:44.128Z,11.10
2018-11-02T16:16:12.640Z,10.90
2018-11-02T16:18:41.187Z,11.00
2018-11-02T16:21:09.752Z,10.90
2018-11-02T16:23:39.190Z,10.70
2018-11-02T16:26:07.914Z,10.60
2018-11-02T16:28:36.377Z,10.80
2018-11-02T16:31:04.914Z,10.60
2018-11-02T16:33:33.384Z,10.50
2018-11-02T16:36:01.874Z,10.50
2018-11-02T16:38:30.330Z,10.40
2018-11-02T16:40:58.835Z,10.30
2018-11-02T16:43:27.330Z,10.30
2018-11-02T16:45:55.813Z,10.30
2018-11-02T16:48:24.247Z,10.30
2018-11-02T16:50:52.769Z,10.30
2018-11-02T16:53:21.279Z,10.20
2018-11-02T16:55:49.776Z,10.20
2018-11-02T16:58:18.293Z,10.10
2018-11-02T17:00:47.380Z,10.10
2018-11-02T17:03:15.943Z,10.10
2018-11-02T17:05:44.485Z,10.00
2018-11-02T17:08:12.924Z,9.90
2018-11-02T17:10:41.446Z,10.00
2018-11-02T17:13:09.917Z,10.00
2018-11-02T17:15:38.447Z,9.80
2018-11-02T17:18:06.969Z,9.70
2018-11-02T17:20:35.388Z,9.40
2018-11-02T17:23:03.892Z,9.60
2018-11-02T17:25:32.357Z,9.50
2018-11-02T17:28:00.838Z,9.50
2018-11-02T17:30:29.272Z,9.50
2018-11-02T17:32:57.746Z,9.40
2018-11-02T17:35:26.201Z,9.40
2018-11-02T17:37:54.654Z,9.40
2018-11-02T17:40:23.172Z,9.30
2018-11-02T17:42:51.652Z,9.30
2018-11-02T17:45:20.153Z,9.20
2018-11-02T17:47:49.758Z,9.20
2018-11-02T17:50:18.202Z,9.20
2018-11-02T17:52:47.649Z,9.20
2018-11-02T17:55:16.782Z,9.10
2018-11-02T17:57:45.217Z,9.10
2018-11-02T18:00:14.357Z,9.00
2018-11-02T18:02:43.390Z,9.00
2018-11-02T18:05:12.244Z,9.00
2018-11-02T18:07:40.774Z,9.00
2018-11-02T18:10:12.290Z,8.90
2018-11-02T18:12:41.056Z,8.90
2018-11-02T18:15:10.098Z,8.80
2018-11-02T18:17:38.632Z,8.70
2018-11-02T18:20:10.651Z,8.80
2018-11-02T18:22:39.182Z,8.60
2018-11-02T18:25:09.044Z,8.60
2018-11-02T18:27:38.416Z,8.70
2018-11-02T18:30:08.357Z,8.70
2018-11-02T18:32:36.929Z,8.70
2018-11-02T18:35:06.147Z,8.70
2018-11-02T18:37:34.549Z,8.50
2018-11-02T18:40:03.059Z,8.50
2018-11-02T18:42:31.613Z,8.40
2018-11-02T18:44:59.986Z,8.50
2018-11-02T18:47:33.802Z,8.50
2018-11-02T18:50:02.240Z,8.40
2018-11-02T18:52:30.726Z,8.40
2018-11-02T18:54:59.190Z,8.40
2018-11-02T18:57:27.628Z,8.50
2018-11-02T18:59:56.066Z,8.50
2018-11-02T19:02:24.521Z,8.50
2018-11-02T19:04:53.014Z,8.50
2018-11-02T19:07:21.456Z,8.60
2018-11-02T19:09:49.959Z,8.40
2018-11-02T19:12:18.600Z,8.40
2018-11-02T19:14:47.032Z,8.30
2018-11-02T19:17:15.581Z,8.30
2018-11-02T19:19:44.863Z,8.20
2018-11-02T19:22:13.382Z,8.20
2018-11-02T19:24:42.583Z,8.20
2018-11-02T19:27:11.125Z,8.20
2018-11-02T19:32:06.269Z,8.10
2018-11-02T19:34:35.222Z,8.20
2018-11-02T19:37:04.324Z,8.10
2018-11-02T19:39:33.461Z,8.10
2018-11-02T19:42:02.813Z,8.10
2018-11-02T19:44:31.345Z,8.10
2018-11-02T19:46:59.801Z,8.00
2018-11-02T19:49:29.031Z,8.00
2018-11-02T19:51:58.552Z,7.90
2018-11-02T19:54:27.030Z,7.90
2018-11-02T19:56:55.525Z,7.70
2018-11-02T19:59:24.001Z,7.60
2018-11-02T20:01:52.497Z,7.70
2018-11-02T20:04:21.035Z,7.60
2018-11-02T20:06:49.605Z,7.60
2018-11-02T20:09:18.122Z,7.70
2018-11-02T20:11:46.568Z,7.60
2018-11-02T20:14:15.889Z,7.60
2018-11-02T20:16:44.420Z,7.50
2018-11-02T20:19:12.961Z,7.80
2018-11-02T20:21:41.436Z,7.50
2018-11-02T20:24:09.930Z,7.40
2018-11-02T20:26:38.405Z,7.30
2018-11-02T20:29:06.842Z,7.40
2018-11-02T20:31:35.351Z,7.20
2018-11-02T20:34:03.880Z,7.30
2018-11-02T20:36:32.445Z,7.40
2018-11-02T20:39:00.988Z,7.30
2018-11-02T20:41:29.979Z,7.10
2018-11-02T20:43:58.417Z,7.00
2018-11-02T20:46:26.913Z,7.10
2018-11-02T20:48:55.412Z,7.10
2018-11-02T20:51:23.823Z,7.10
2018-11-02T20:53:52.299Z,7.10
2018-11-02T20:56:20.884Z,7.20
2018-11-02T20:58:49.415Z,6.90
2018-11-02T21:01:17.848Z,6.60
2018-11-02T21:03:46.405Z,6.60
2018-11-02T21:06:14.881Z,6.60
2018-11-02T21:08:43.548Z,6.70
2018-11-02T21:11:11.957Z,6.90
2018-11-02T21:13:40.445Z,6.90
2018-11-02T21:16:08.988Z,6.70
2018-11-02T21:18:37.382Z,6.70
2018-11-02T21:21:06.249Z,6.80
2018-11-02T21:23:34.769Z,6.90
2018-11-02T21:26:03.265Z,6.90
2018-11-02T21:28:31.731Z,6.90
2018-11-02T21:31:00.295Z,7.00
2018-11-02T21:33:29.514Z,6.90
2018-11-02T21:35:57.986Z,6.70
2018-11-02T21:38:26.480Z,6.60
2018-11-02T21:40:54.944Z,6.60
2018-11-02T21:43:23.501Z,6.70
2018-11-02T21:45:52.817Z,6.60
2018-11-02T21:48:21.357Z,6.40
2018-11-02T21:50:49.852Z,6.30
2018-11-02T21:53:18.334Z,6.30
2018-11-02T21:55:46.830Z,6.60
2018-11-02T21:58:15.869Z,6.70
2018-11-02T22:00:44.323Z,6.50
2018-11-02T22:03:12.858Z,6.20
2018-11-02T22:05:41.297Z,6.10
2018-11-02T22:08:09.781Z,6.40
2018-11-02T22:10:38.229Z,6.30
2018-11-02T22:13:06.728Z,6.20
2018-11-02T22:15:35.193Z,6.10
2018-11-02T22:18:03.670Z,6.00
2018-11-02T22:20:32.169Z,6.10
2018-11-02T22:23:00.636Z,6.30
2018-11-02T22:25:29.109Z,6.30
2018-11-02T22:27:57.651Z,6.30
2018-11-02T22:30:26.121Z,6.20
2018-11-02T22:32:54.573Z,6.00
2018-11-02T22:35:23.020Z,5.90
2018-11-02T22:37:51.522Z,5.90
2018-11-02T22:40:20.030Z,6.00
2018-11-02T22:42:48.500Z,6.10
2018-11-02T22:45:17.085Z,6.00
2018-11-02T22:47:50.892Z,5.80
2018-11-02T22:50:19.369Z,5.90
2018-11-02T22:52:47.891Z,5.90
2018-11-02T22:55:16.408Z,5.80
2018-11-02T22:57:44.909Z,5.70
2018-11-02T23:00:16.751Z,5.70
2018-11-02T23:02:46.429Z,5.60
2018-11-02T23:05:14.953Z,5.80
2018-11-02T23:07:43.896Z,6.00
2018-11-02T23:10:12.678Z,5.80
2018-11-02T23:12:41.864Z,5.80
2018-11-02T23:15:11.205Z,5.90
2018-11-02T23:17:39.752Z,6.00
2018-11-02T23:20:10.800Z,6.00
2018-11-02T23:22:39.360Z,6.10
2018-11-02T23:25:09.120Z,6.20
2018-11-02T23:27:37.655Z,6.20
2018-11-02T23:30:07.254Z,6.30
2018-11-02T23:32:35.633Z,6.20
2018-11-02T23:35:04.173Z,6.10
2018-11-02T23:37:33.748Z,6.10
2018-11-02T23:40:02.237Z,6.00
2018-11-02T23:42:30.711Z,5.90
2018-11-02T23:44:59.243Z,5.70
2018-11-02T23:47:27.866Z,6.10
2018-11-02T23:49:56.357Z,6.10
2018-11-02T23:52:25.529Z,6.10
2018-11-02T23:54:54.043Z,5.80
2018-11-02T23:57:22.504Z,5.70
2018-11-02T23:59:50.956Z,5.90
